createdAt,value
2022-08-19T00:02:04.585Z,7.03
2022-08-19T00:04:37.370Z,6.95
2022-08-19T00:07:07.078Z,6.63
2022-08-19T00:09:35.017Z,7.27
2022-08-19T00:12:02.854Z,7.85
2022-08-19T00:14:33.658Z,8.38
2022-08-19T00:17:05.776Z,7.75
2022-08-19T00:19:33.459Z,7.30
2022-08-19T00:22:00.926Z,8.15
2022-08-19T00:24:28.162Z,8.10
2022-08-19T00:26:56.142Z,7.75
2022-08-19T00:29:25.534Z,7.60
2022-08-19T00:31:57.491Z,7.50
2022-08-19T00:34:24.715Z,7.60
2022-08-19T00:36:51.716Z,7.97
2022-08-19T00:39:19.214Z,7.72
2022-08-19T00:41:49.757Z,7.97
2022-08-19T00:44:27.212Z,6.65
2022-08-19T00:46:58.226Z,7.65
2022-08-19T00:49:36.350Z,7.30
2022-08-19T00:52:17.540Z,7.38
2022-08-19T00:54:52.390Z,7.00
2022-08-19T00:57:31.748Z,7.50
2022-08-19T01:00:03.090Z,8.05
2022-08-19T01:02:33.350Z,7.78
2022-08-19T01:05:06.280Z,7.50
2022-08-19T01:07:37.894Z,8.15
2022-08-19T01:10:09.505Z,6.53
2022-08-19T01:12:37.264Z,7.07
2022-08-19T01:15:09.568Z,7.53
2022-08-19T01:17:39.552Z,7.70
2022-08-19T01:20:10.440Z,7.78
2022-08-19T01:22:52.143Z,8.82
2022-08-19T01:25:25.065Z,8.98
2022-08-19T01:27:54.680Z,7.72
2022-08-19T01:30:30.232Z,7.55
2022-08-19T01:33:01.498Z,8.13
2022-08-19T01:35:31.040Z,7.90
2022-08-19T01:38:06.908Z,7.70
2022-08-19T01:40:36.216Z,8.18
2022-08-19T01:43:04.746Z,7.97
2022-08-19T01:45:34.573Z,7.82
2022-08-19T01:48:02.705Z,7.40
2022-08-19T01:50:32.688Z,7.47
2022-08-19T01:53:05.996Z,8.02
2022-08-19T01:55:40.613Z,7.82
2022-08-19T01:58:15.268Z,8.05
2022-08-19T02:00:42.798Z,8.38
2022-08-19T02:03:12.039Z,8.60
2022-08-19T02:05:40.912Z,7.53
2022-08-19T02:08:09.068Z,8.15
2022-08-19T02:10:44.464Z,9.45
2022-08-19T02:13:14.395Z,8.05
2022-08-19T02:15:42.290Z,9.10
2022-08-19T02:18:09.785Z,9.07
2022-08-19T02:20:38.632Z,9.07
2022-08-19T02:23:13.866Z,7.68
2022-08-19T02:25:46.788Z,8.85
2022-08-19T02:28:18.327Z,9.00
2022-08-19T02:30:47.681Z,9.55
2022-08-19T02:33:15.610Z,9.98
2022-08-19T02:35:45.832Z,9.20
2022-08-19T02:38:26.199Z,9.30
2022-08-19T02:41:00.549Z,8.80
2022-08-19T02:43:33.619Z,8.75
2022-08-19T02:46:01.850Z,9.50
2022-08-19T02:48:29.119Z,9.18
2022-08-19T02:50:56.361Z,10.05
2022-08-19T02:53:27.644Z,9.70
2022-08-19T02:55:55.216Z,10.35
2022-08-19T02:58:22.908Z,9.35
2022-08-19T03:00:54.304Z,10.48
2022-08-19T03:03:22.148Z,9.88
2022-08-19T03:05:56.259Z,9.23
2022-08-19T03:08:25.111Z,9.32
2022-08-19T03:10:53.764Z,9.77
2022-08-19T03:13:20.940Z,10.65
2022-08-19T03:15:49.244Z,11.02
2022-08-19T03:18:18.067Z,9.75
2022-08-19T03:20:51.341Z,10.57
2022-08-19T03:23:18.445Z,10.80
2022-08-19T03:25:58.409Z,9.98
2022-08-19T03:28:35.542Z,8.98
2022-08-19T03:31:42.099Z,9.27
2022-08-19T03:33:58.371Z,9.93
2022-08-19T03:36:28.529Z,9.02
2022-08-19T03:39:00.211Z,9.60
2022-08-19T03:41:45.098Z,10.40
2022-08-19T03:44:18.032Z,10.35
2022-08-19T03:46:48.324Z,9.90
2022-08-19T03:49:18.353Z,9.90
2022-08-19T03:51:47.662Z,10.00
2022-08-19T03:54:20.353Z,10.68
2022-08-19T03:56:50.956Z,10.85
2022-08-19T03:59:29.433Z,10.50
2022-08-19T04:01:59.760Z,11.10
2022-08-19T04:04:29.192Z,9.43
2022-08-19T04:06:57.830Z,11.40
2022-08-19T04:09:25.281Z,11.20
2022-08-19T04:11:55.845Z,10.77
2022-08-19T04:14:29.241Z,10.02
2022-08-19T04:16:56.796Z,10.70
2022-08-19T04:19:24.100Z,10.45
2022-08-19T04:21:54.146Z,10.23
2022-08-19T04:24:22.374Z,9.68
2022-08-19T04:26:50.715Z,10.57
2022-08-19T04:29:26.066Z,10.38
2022-08-19T04:31:56.439Z,10.68
2022-08-19T04:34:27.648Z,9.48
2022-08-19T04:36:57.442Z,9.43
2022-08-19T04:39:48.959Z,10.35
2022-08-19T04:42:37.476Z,10.20
2022-08-19T04:45:09.435Z,9.90
2022-08-19T04:47:47.592Z,9.88
2022-08-19T04:50:26.884Z,10.25
2022-08-19T04:52:54.115Z,9.60
2022-08-19T04:55:21.385Z,10.82
2022-08-19T04:57:48.468Z,8.98
2022-08-19T05:00:15.748Z,10.27
2022-08-19T05:02:43.548Z,10.35
2022-08-19T05:05:10.885Z,9.30
2022-08-19T05:07:38.303Z,8.32
2022-08-19T05:10:07.290Z,9.27
2022-08-19T05:12:34.632Z,9.52
2022-08-19T05:15:04.671Z,9.48
2022-08-19T05:17:36.206Z,8.95
2022-08-19T05:20:26.061Z,9.25
2022-08-19T05:22:53.317Z,9.27
2022-08-19T05:25:22.591Z,9.23
2022-08-19T05:27:49.925Z,9.55
2022-08-19T05:30:18.122Z,9.88
2022-08-19T05:32:45.581Z,9.48
2022-08-19T05:35:13.112Z,9.40
2022-08-19T05:37:43.713Z,10.60
2022-08-19T05:40:11.477Z,10.57
2022-08-19T05:42:38.813Z,10.68
2022-08-19T05:45:06.954Z,9.90
2022-08-19T05:47:34.016Z,9.90
2022-08-19T05:50:05.139Z,10.70
2022-08-19T05:52:32.662Z,10.85
2022-08-19T05:55:00.544Z,11.55
2022-08-19T05:57:29.867Z,10.77
2022-08-19T05:59:59.108Z,10.20
2022-08-19T06:02:31.958Z,10.60
2022-08-19T06:04:59.244Z,11.13
2022-08-19T06:07:27.015Z,13.23
2022-08-19T06:09:58.908Z,13.27
2022-08-19T06:12:33.991Z,10.98
2022-08-19T06:15:09.709Z,11.18
2022-08-19T06:17:37.115Z,10.73
2022-08-19T06:20:11.194Z,11.10
2022-08-19T06:22:43.188Z,10.63
2022-08-19T06:25:11.176Z,10.77
2022-08-19T06:27:53.118Z,11.43
2022-08-19T06:30:25.549Z,10.45
2022-08-19T06:32:52.594Z,10.68
2022-08-19T06:35:20.261Z,11.30
2022-08-19T06:37:47.965Z,11.98
2022-08-19T06:40:15.178Z,11.45
2022-08-19T06:42:50.214Z,11.18
2022-08-19T06:45:25.110Z,10.82
2022-08-19T06:48:01.859Z,11.52
2022-08-19T06:50:28.817Z,11.27
2022-08-19T06:52:55.976Z,12.05
2022-08-19T06:55:23.127Z,11.52
2022-08-19T06:57:54.418Z,10.38
2022-08-19T07:00:21.992Z,10.35
2022-08-19T07:02:55.863Z,10.27
2022-08-19T07:05:26.142Z,9.65
2022-08-19T07:07:53.158Z,9.13
2022-08-19T07:10:20.543Z,9.85
2022-08-19T07:12:48.529Z,11.13
2022-08-19T07:15:17.884Z,10.18
2022-08-19T07:20:17.053Z,9.63
2022-08-19T07:22:46.354Z,8.98
2022-08-19T07:25:14.208Z,9.18
2022-08-19T07:27:41.164Z,9.07
2022-08-19T07:30:11.621Z,9.40
2022-08-19T07:32:43.304Z,8.85
2022-08-19T07:35:10.787Z,9.48
2022-08-19T07:37:39.193Z,9.18
2022-08-19T07:40:08.501Z,8.38
2022-08-19T07:42:35.624Z,8.25
2022-08-19T07:45:03.182Z,8.75
2022-08-19T07:47:49.270Z,9.02
2022-08-19T07:50:21.075Z,8.55
2022-08-19T07:52:50.534Z,8.02
2022-08-19T07:55:40.558Z,7.47
2022-08-19T07:58:12.116Z,8.18
2022-08-19T08:00:39.737Z,7.97
2022-08-19T08:03:06.997Z,7.95
2022-08-19T08:05:52.401Z,7.88
2022-08-19T08:08:37.833Z,8.55
2022-08-19T08:11:12.338Z,7.15
2022-08-19T08:13:43.202Z,6.75
2022-08-19T08:16:14.380Z,7.75
2022-08-19T08:18:50.562Z,7.75
2022-08-19T08:21:18.152Z,7.88
2022-08-19T08:23:45.179Z,7.82
2022-08-19T08:26:13.932Z,8.10
2022-08-19T08:28:43.037Z,7.63
2022-08-19T08:31:15.517Z,6.65
2022-08-19T08:33:43.212Z,5.80
2022-08-19T08:36:11.889Z,6.90
2022-08-19T08:38:40.557Z,5.70
2022-08-19T08:41:29.362Z,6.65
2022-08-19T08:43:58.077Z,6.53
2022-08-19T08:46:48.973Z,6.90
2022-08-19T08:50:00.447Z,6.78
2022-08-19T08:52:36.252Z,6.85
2022-08-19T08:55:20.447Z,6.60
2022-08-19T08:57:52.140Z,5.95
2022-08-19T09:00:27.610Z,5.43
2022-08-19T09:02:56.524Z,5.63
2022-08-19T09:05:27.296Z,5.22
2022-08-19T09:08:19.277Z,5.95
2022-08-19T09:10:55.465Z,4.30
2022-08-19T09:13:52.992Z,4.93
2022-08-19T09:16:27.941Z,5.15
2022-08-19T09:19:06.859Z,5.32
2022-08-19T09:21:34.405Z,4.20
2022-08-19T09:24:06.428Z,4.07
2022-08-19T09:26:35.263Z,3.95
2022-08-19T09:29:15.244Z,3.97
2022-08-19T09:31:42.406Z,4.38
2022-08-19T09:34:09.381Z,4.90
2022-08-19T09:36:54.009Z,3.90
2022-08-19T09:39:22.969Z,4.50
2022-08-19T09:41:50.881Z,4.10
2022-08-19T09:44:18.976Z,4.40
2022-08-19T09:46:49.136Z,4.05
2022-08-19T09:49:22.639Z,3.70
2022-08-19T09:51:55.337Z,3.30
2022-08-19T09:54:23.535Z,3.83
2022-08-19T09:56:53.324Z,3.40
2022-08-19T09:59:21.325Z,3.72
2022-08-19T10:01:48.515Z,3.78
2022-08-19T10:04:23.167Z,2.92
2022-08-19T10:06:57.550Z,3.10
2022-08-19T10:09:33.806Z,3.50
2022-08-19T10:12:02.506Z,2.80
2022-08-19T10:14:30.150Z,2.45
2022-08-19T10:16:57.526Z,2.78
2022-08-19T10:19:26.834Z,2.67
2022-08-19T10:21:55.561Z,3.03
2022-08-19T10:24:28.452Z,2.50
2022-08-19T10:26:58.774Z,2.50
2022-08-19T10:29:32.516Z,2.75
2022-08-19T10:32:03.331Z,3.05
2022-08-19T10:34:31.774Z,2.20
2022-08-19T10:37:01.939Z,3.35
2022-08-19T10:39:32.925Z,3.25
2022-08-19T10:42:14.147Z,3.53
2022-08-19T10:44:42.711Z,2.80
2022-08-19T10:47:18.015Z,3.20
2022-08-19T10:50:18.307Z,2.75
2022-08-19T10:52:49.961Z,3.38
2022-08-19T10:55:43.078Z,2.65
2022-08-19T10:58:17.031Z,2.58
2022-08-19T11:00:44.779Z,3.05
2022-08-19T11:03:12.750Z,2.80
2022-08-19T11:05:40.654Z,3.08
2022-08-19T11:08:23.263Z,2.95
2022-08-19T11:10:58.410Z,2.40
2022-08-19T11:13:26.007Z,2.53
2022-08-19T11:16:14.240Z,2.75
2022-08-19T11:18:46.188Z,2.97
2022-08-19T11:21:23.209Z,2.30
2022-08-19T11:23:54.252Z,2.78
2022-08-19T11:26:22.601Z,2.85
2022-08-19T11:28:53.372Z,2.80
2022-08-19T11:31:28.903Z,2.42
2022-08-19T11:34:00.542Z,3.00
2022-08-19T11:36:28.285Z,2.95
2022-08-19T11:38:55.811Z,2.83
2022-08-19T11:41:24.541Z,3.10
2022-08-19T11:43:55.084Z,3.25
2022-08-19T11:46:25.194Z,3.03
2022-08-19T11:48:52.252Z,3.47
2022-08-19T11:51:23.267Z,2.75
2022-08-19T11:53:51.250Z,3.28
2022-08-19T11:56:19.943Z,3.22
2022-08-19T11:58:47.297Z,2.95
2022-08-19T12:01:18.683Z,3.42
2022-08-19T12:03:47.403Z,3.53
2022-08-19T12:06:29.541Z,3.38
2022-08-19T12:08:59.504Z,3.45
2022-08-19T12:11:28.995Z,3.40
2022-08-19T12:13:58.334Z,3.35
2022-08-19T12:16:29.395Z,3.13
2022-08-19T12:18:58.634Z,3.38
2022-08-19T12:21:31.290Z,3.40
2022-08-19T12:24:01.288Z,3.45
2022-08-19T12:26:30.204Z,3.40
2022-08-19T12:28:57.215Z,3.33
2022-08-19T12:31:24.383Z,3.60
2022-08-19T12:33:53.330Z,3.42
2022-08-19T12:36:20.649Z,3.20
2022-08-19T12:38:47.715Z,2.78
2022-08-19T12:41:18.672Z,3.30
2022-08-19T12:43:46.449Z,3.20
2022-08-19T12:46:13.760Z,3.20
2022-08-19T12:48:42.867Z,2.90
2022-08-19T12:51:14.936Z,3.25
2022-08-19T12:53:42.812Z,3.55
2022-08-19T12:56:12.893Z,3.53
2022-08-19T12:58:42.630Z,3.40
2022-08-19T13:01:17.811Z,3.10
2022-08-19T13:03:49.125Z,3.15
2022-08-19T13:06:19.055Z,2.90
2022-08-19T13:08:47.420Z,3.33
2022-08-19T13:11:21.494Z,3.25
2022-08-19T13:13:52.952Z,3.55
2022-08-19T13:16:21.296Z,2.92
2022-08-19T13:18:49.086Z,2.80
2022-08-19T13:21:16.277Z,3.38
2022-08-19T13:23:43.991Z,3.60
2022-08-19T13:26:13.362Z,3.20
2022-08-19T13:29:00.703Z,2.95
2022-08-19T13:31:49.262Z,2.65
2022-08-19T13:34:20.072Z,3.05
2022-08-19T13:36:47.509Z,2.97
2022-08-19T13:39:14.630Z,2.65
2022-08-19T13:41:50.761Z,2.45
2022-08-19T13:44:19.332Z,2.97
2022-08-19T13:46:49.541Z,2.72
2022-08-19T13:49:21.651Z,2.20
2022-08-19T13:51:48.739Z,2.50
2022-08-19T13:54:15.785Z,2.42
2022-08-19T13:56:45.394Z,2.45
2022-08-19T13:59:13.328Z,2.28
2022-08-19T14:01:42.112Z,2.70
2022-08-19T14:04:09.467Z,2.65
2022-08-19T14:06:36.956Z,2.58
2022-08-19T14:09:05.532Z,2.63
2022-08-19T14:11:32.598Z,2.40
2022-08-19T14:13:59.865Z,2.67
2022-08-19T14:16:28.128Z,2.70
2022-08-19T14:18:55.775Z,2.47
2022-08-19T14:21:25.189Z,2.30
2022-08-19T14:23:52.986Z,2.33
2022-08-19T14:26:22.459Z,2.60
2022-08-19T14:28:50.328Z,2.38
2022-08-19T14:31:19.972Z,2.50
2022-08-19T14:33:48.763Z,2.50
2022-08-19T14:36:15.936Z,2.35
2022-08-19T14:38:43.589Z,2.22
2022-08-19T14:41:20.337Z,1.80
2022-08-19T14:43:50.714Z,2.15
2022-08-19T14:46:21.800Z,2.50
2022-08-19T14:48:51.906Z,2.13
2022-08-19T14:51:21.815Z,2.20
2022-08-19T14:53:52.854Z,2.00
2022-08-19T14:56:25.477Z,2.30
2022-08-19T14:58:53.590Z,2.50
2022-08-19T15:01:23.770Z,2.10
2022-08-19T15:03:53.806Z,2.80
2022-08-19T15:06:23.063Z,2.20
2022-08-19T15:08:52.538Z,2.53
2022-08-19T15:11:23.929Z,2.08
2022-08-19T15:13:51.861Z,2.10
2022-08-19T15:16:20.048Z,1.67
2022-08-19T15:18:50.726Z,2.10
2022-08-19T15:21:26.541Z,2.00
2022-08-19T15:23:57.258Z,2.13
2022-08-19T15:28:53.210Z,2.00
2022-08-19T15:31:28.417Z,2.13
2022-08-19T15:33:59.120Z,1.55
2022-08-19T15:36:27.243Z,1.60
2022-08-19T15:38:56.054Z,2.00
2022-08-19T15:41:30.878Z,1.73
2022-08-19T15:44:13.198Z,2.13
2022-08-19T15:46:43.703Z,2.00
2022-08-19T15:49:14.159Z,1.98
2022-08-19T15:51:44.144Z,1.88
2022-08-19T15:57:03.458Z,1.98
2022-08-19T15:59:49.003Z,1.98
2022-08-19T16:02:38.195Z,2.10
2022-08-19T16:05:28.881Z,1.83
2022-08-19T16:07:57.188Z,2.00
2022-08-19T16:10:26.289Z,2.28
2022-08-19T16:13:00.927Z,2.22
2022-08-19T16:15:30.507Z,2.15
2022-08-19T16:17:58.058Z,2.10
2022-08-19T16:20:27.493Z,2.10
2022-08-19T16:22:58.254Z,2.00
2022-08-19T16:25:28.954Z,2.10
2022-08-19T16:28:07.272Z,2.20
2022-08-19T16:30:38.559Z,2.30
2022-08-19T16:33:05.926Z,1.83
2022-08-19T16:35:33.042Z,2.20
2022-08-19T16:38:00.581Z,1.83
2022-08-19T16:40:27.837Z,2.00
2022-08-19T16:42:54.869Z,2.83
2022-08-19T16:45:22.159Z,2.13
2022-08-19T16:47:50.460Z,2.00
2022-08-19T16:50:29.272Z,1.88
2022-08-19T16:53:09.256Z,1.90
2022-08-19T16:55:37.656Z,2.40
2022-08-19T16:58:04.998Z,2.08
2022-08-19T17:00:32.057Z,2.00
2022-08-19T17:03:14.717Z,2.22
2022-08-19T17:05:54.444Z,2.00
2022-08-19T17:08:26.377Z,1.95
2022-08-19T17:11:17.106Z,1.98
2022-08-19T17:13:42.440Z,1.98
2022-08-19T17:16:10.464Z,2.17
2022-08-19T17:18:37.503Z,2.08
2022-08-19T17:21:04.614Z,2.28
2022-08-19T17:23:42.420Z,1.90
2022-08-19T17:26:17.223Z,1.80
2022-08-19T17:28:49.800Z,2.10
2022-08-19T17:31:21.069Z,1.70
2022-08-19T17:33:48.567Z,1.88
2022-08-19T17:36:18.175Z,1.73
2022-08-19T17:38:45.850Z,2.00
2022-08-19T17:41:12.920Z,2.33
2022-08-19T17:43:43.577Z,1.90
2022-08-19T17:46:17.655Z,1.98
2022-08-19T17:48:52.191Z,1.70
2022-08-19T17:51:22.397Z,1.52
2022-08-19T17:53:51.688Z,2.10
2022-08-19T17:56:19.637Z,1.63
2022-08-19T17:58:57.661Z,1.88
2022-08-19T18:01:32.051Z,2.05
2022-08-19T18:04:18.582Z,2.25
2022-08-19T18:06:46.899Z,2.00
2022-08-19T18:09:20.616Z,2.10
2022-08-19T18:11:47.923Z,2.05
2022-08-19T18:14:28.121Z,1.90
2022-08-19T18:17:09.385Z,1.75
2022-08-19T18:19:42.181Z,1.80
2022-08-19T18:22:31.315Z,2.00
2022-08-19T18:24:59.077Z,2.08
2022-08-19T18:27:27.791Z,1.73
2022-08-19T18:29:59.145Z,1.95
2022-08-19T18:32:32.392Z,2.65
2022-08-19T18:35:01.799Z,2.53
2022-08-19T18:37:29.260Z,2.03
2022-08-19T18:40:15.685Z,2.17
2022-08-19T18:43:04.101Z,2.50
2022-08-19T18:45:50.587Z,2.35
2022-08-19T18:48:36.514Z,2.35
2022-08-19T18:51:03.601Z,2.40
2022-08-19T18:53:34.657Z,2.65
2022-08-19T18:56:09.957Z,2.55
2022-08-19T18:58:38.299Z,2.63
2022-08-19T19:01:15.176Z,2.80
2022-08-19T19:03:47.870Z,2.50
2022-08-19T19:06:23.191Z,2.42
2022-08-19T19:08:52.745Z,2.47
2022-08-19T19:11:32.360Z,2.55
2022-08-19T19:14:03.870Z,2.55
2022-08-19T19:16:32.281Z,2.13
2022-08-19T19:18:59.747Z,2.60
2022-08-19T19:21:26.786Z,2.38
2022-08-19T19:23:55.441Z,2.60
2022-08-19T19:26:23.088Z,2.60
2022-08-19T19:28:51.394Z,2.42
2022-08-19T19:31:28.391Z,2.50
2022-08-19T19:33:56.647Z,2.95
2022-08-19T19:36:24.178Z,2.20
2022-08-19T19:38:53.706Z,2.78
2022-08-19T19:41:24.663Z,2.45
2022-08-19T19:44:29.270Z,2.67
2022-08-19T19:46:48.249Z,2.05
2022-08-19T19:49:15.353Z,2.58
2022-08-19T19:51:43.613Z,2.80
2022-08-19T19:54:19.548Z,3.20
2022-08-19T19:56:51.184Z,2.58
2022-08-19T19:59:18.689Z,2.53
2022-08-19T20:01:50.399Z,2.40
2022-08-19T20:04:21.624Z,3.45
2022-08-19T20:06:48.855Z,2.63
2022-08-19T20:09:19.783Z,2.60
2022-08-19T20:11:53.510Z,2.25
2022-08-19T20:14:26.972Z,2.63
2022-08-19T20:16:56.045Z,2.50
2022-08-19T20:19:36.849Z,2.15
2022-08-19T20:22:05.819Z,2.75
2022-08-19T20:24:35.539Z,2.65
2022-08-19T20:27:04.835Z,2.60
2022-08-19T20:29:39.287Z,2.63
2022-08-19T20:32:10.410Z,2.88
2022-08-19T20:34:39.152Z,3.28
2022-08-19T20:37:09.071Z,3.28
2022-08-19T20:39:36.816Z,2.85
2022-08-19T20:42:04.614Z,3.15
2022-08-19T20:44:34.428Z,3.38
2022-08-19T20:47:04.011Z,2.97
2022-08-19T20:49:32.192Z,3.20
2022-08-19T20:51:59.358Z,3.13
2022-08-19T20:54:27.037Z,3.15
2022-08-19T20:56:55.173Z,3.45
2022-08-19T20:59:23.901Z,3.70
2022-08-19T21:01:52.209Z,3.38
2022-08-19T21:04:21.403Z,3.15
2022-08-19T21:06:51.072Z,3.75
2022-08-19T21:09:21.472Z,3.72
2022-08-19T21:11:48.669Z,3.58
2022-08-19T21:14:15.754Z,3.90
2022-08-19T21:16:42.822Z,4.03
2022-08-19T21:19:09.914Z,3.83
2022-08-19T21:21:36.924Z,4.03
2022-08-19T21:24:07.253Z,3.65
2022-08-19T21:26:34.238Z,3.72
2022-08-19T21:29:01.250Z,3.60
2022-08-19T21:31:28.237Z,3.80
2022-08-19T21:33:55.740Z,3.45
2022-08-19T21:36:22.947Z,3.53
2022-08-19T21:38:49.933Z,3.17
2022-08-19T21:41:16.920Z,3.42
2022-08-19T21:43:43.908Z,3.60
2022-08-19T21:46:11.917Z,3.45
2022-08-19T21:48:38.924Z,3.50
2022-08-19T21:51:06.149Z,3.38
2022-08-19T21:53:34.142Z,3.70
2022-08-19T21:56:06.358Z,3.45
2022-08-19T21:58:34.325Z,3.20
2022-08-19T22:01:05.834Z,3.67
2022-08-19T22:03:38.422Z,3.70
2022-08-19T22:06:09.468Z,3.05
2022-08-19T22:08:36.888Z,4.18
2022-08-19T22:11:04.702Z,4.18
2022-08-19T22:13:40.042Z,3.90
2022-08-19T22:16:08.322Z,4.55
2022-08-19T22:18:35.521Z,3.90
2022-08-19T22:21:07.255Z,3.95
2022-08-19T22:23:36.725Z,3.67
2022-08-19T22:26:03.714Z,3.20
2022-08-19T22:28:30.677Z,3.25
2022-08-19T22:30:57.785Z,3.63
2022-08-19T22:33:27.495Z,4.00
2022-08-19T22:35:54.509Z,3.42
2022-08-19T22:38:22.539Z,3.88
2022-08-19T22:40:51.067Z,3.70
2022-08-19T22:43:22.668Z,3.80
2022-08-19T22:45:52.295Z,3.47
2022-08-19T22:48:24.934Z,4.25
2022-08-19T22:51:12.087Z,4.60
2022-08-19T22:53:45.023Z,4.40
2022-08-19T22:56:15.441Z,3.92
2022-08-19T22:58:43.561Z,4.00
2022-08-19T23:01:14.684Z,3.67
2022-08-19T23:03:57.325Z,4.30
2022-08-19T23:06:33.881Z,4.32
2022-08-19T23:09:05.253Z,4.72
2022-08-19T23:11:35.648Z,4.13
2022-08-19T23:14:07.116Z,4.60
2022-08-19T23:16:35.921Z,4.32
2022-08-19T23:19:03.390Z,4.60
2022-08-19T23:21:30.366Z,4.35
2022-08-19T23:23:57.506Z,4.57
2022-08-19T23:26:24.528Z,4.90
2022-08-19T23:29:10.034Z,4.53
2022-08-19T23:31:37.085Z,4.55
2022-08-19T23:34:04.138Z,4.53
2022-08-19T23:36:31.259Z,4.43
2022-08-19T23:38:59.557Z,4.95
2022-08-19T23:41:29.958Z,4.88
2022-08-19T23:46:28.237Z,4.32
2022-08-19T23:48:57.323Z,4.70
2022-08-19T23:51:26.733Z,4.30
2022-08-19T23:53:53.908Z,4.07
2022-08-19T23:56:21.437Z,4.50
2022-08-19T23:58:49.046Z,4.10
